Nitro, West Virginia
Current Conditions -  °F | °C
As of 7:54 PM on Monday 22 Dec 2014 (Local Time) from KCRW Reporting Station
Overcast Overcast  
Wind Chill: 46°   Ceiling: 6000
Heat Index: 48°   Visibility: 10mi
Dew Point: 37°   Wind: 5mph
Humidity: 66%   Direction: 140°SE
Pressure: 29.88"   Gusts: NA
Location:  38.42°N, 81.84°W
Report Text: KCRW 230054Z 14004KT 10SM BKN060 OVC090 09/03 A2988 RMK AO2 SLP122 T00890028
Loading
Personal Weather Stations






























Interactive Weather Map New forecast layout! Learn more

10-Day Weather Forecast

Advertisements
Track Severe Weather on mobile